Time;durP1;ratioP1;P1;durP2;ratioP2;P2;SDS_P1;SDS_P2;PMS_P1;PMS_P2;Temp;Humidity;BMP_temperature;BMP_pressure;BME280_temperature;BME280_humidity;BME280_pressure;Samples;Min_cycle;Max_cycle;Signal;HPM_P1;HPM_P2
2023/01/03 00:01:44;;;;;;;3.00;0.52;;;;;;;7.20;100.00;96895.56;5000530;28;20766;-73
2023/01/03 00:04:12;;;;;;;0.90;0.55;;;;;;;7.15;100.00;96900.81;4994886;28;21190;-73
2023/01/03 00:06:40;;;;;;;1.65;0.70;;;;;;;7.02;100.00;96905.53;5001217;28;21332;-73
2023/01/03 00:09:10;;;;;;;1.83;0.70;;;;;;;6.95;100.00;96898.88;4999082;28;20780;-72
2023/01/03 00:14:24;;;;;;;1.13;0.73;;;;;;;6.96;100.00;96892.00;4999200;28;24436;-73
2023/01/03 00:16:54;;;;;;;0.70;0.60;;;;;;;6.92;100.00;96895.56;5000563;28;20838;-73
2023/01/03 00:19:22;;;;;;;0.98;0.60;;;;;;;6.95;100.00;96898.88;4997576;28;20794;-73
2023/01/03 00:21:49;;;;;;;0.70;0.40;;;;;;;6.96;100.00;96903.13;4995368;28;24863;-73
2023/01/03 00:24:16;;;;;;;1.05;0.55;;;;;;;6.95;100.00;96909.19;4983791;28;24437;-72
2023/01/03 00:26:43;;;;;;;0.90;0.70;;;;;;;7.00;100.00;96909.03;4989572;28;21172;-73
2023/01/03 00:29:11;;;;;;;0.90;0.60;;;;;;;7.07;100.00;96907.13;4982935;28;20776;-72
2023/01/03 00:31:38;;;;;;;0.90;0.45;;;;;;;7.14;100.00;96899.16;4981944;28;20916;-72
2023/01/03 00:34:07;;;;;;;0.50;0.32;;;;;;;7.18;100.00;96899.91;4980915;28;20773;-73
2023/01/03 00:36:34;;;;;;;0.35;0.30;;;;;;;7.21;100.00;96912.69;4988292;28;20768;-72
2023/01/03 00:39:01;;;;;;;2.80;0.43;;;;;;;7.26;100.00;96903.06;4982612;28;21194;-73
2023/01/03 00:41:28;;;;;;;1.02;0.40;;;;;;;7.26;100.00;96900.50;4981937;28;25002;-73
2023/01/03 00:43:55;;;;;;;0.68;0.43;;;;;;;7.24;100.00;96897.97;4975605;28;24444;-73
2023/01/03 00:46:22;;;;;;;1.67;0.45;;;;;;;7.30;100.00;96890.94;4983878;28;24436;-73
2023/01/03 00:48:49;;;;;;;0.82;0.40;;;;;;;7.32;100.00;96895.16;4985328;28;20782;-73
2023/01/03 00:51:18;;;;;;;0.50;0.30;;;;;;;7.34;100.00;96903.69;4984913;28;20806;-73
2023/01/03 00:53:46;;;;;;;0.32;0.32;;;;;;;7.25;100.00;96897.09;4987767;28;20817;-73
2023/01/03 00:56:14;;;;;;;0.70;0.30;;;;;;;7.24;100.00;96890.25;4987032;28;21146;-73
2023/01/03 00:58:41;;;;;;;1.15;0.30;;;;;;;7.16;100.00;96886.25;4981566;28;20804;-73
2023/01/03 01:01:09;;;;;;;1.40;0.50;;;;;;;6.98;100.00;96891.06;4983861;28;20778;-72
2023/01/03 01:03:37;;;;;;;0.70;0.40;;;;;;;6.90;100.00;96885.31;4992388;28;24448;-73
2023/01/03 01:06:11;;;;;;;1.50;0.50;;;;;;;6.82;100.00;96894.13;4990437;28;20818;-72
2023/01/03 01:08:39;;;;;;;1.45;1.10;;;;;;;6.74;100.00;96894.38;4987826;28;20672;-73
2023/01/03 01:11:06;;;;;;;2.95;1.40;;;;;;;6.65;100.00;96898.06;4985488;28;20830;-72
2023/01/03 01:13:33;;;;;;;2.28;0.90;;;;;;;6.56;100.00;96895.75;4987157;28;24445;-73
2023/01/03 01:16:02;;;;;;;1.25;0.70;;;;;;;6.50;100.00;96898.50;4983960;28;20805;-73
2023/01/03 01:18:28;;;;;;;2.60;1.77;;;;;;;6.43;100.00;96912.44;4985527;28;20813;-73
2023/01/03 01:20:55;;;;;;;2.42;1.67;;;;;;;6.43;100.00;96902.97;4988921;28;20809;-73
2023/01/03 01:23:21;;;;;;;1.98;1.10;;;;;;;6.49;100.00;96907.13;5001283;28;20787;-73
2023/01/03 01:25:49;;;;;;;1.00;0.70;;;;;;;6.61;100.00;96909.34;5001869;28;24509;-73
2023/01/03 01:28:16;;;;;;;1.23;0.60;;;;;;;6.67;100.00;96909.16;4999587;28;20817;-73
2023/01/03 01:30:42;;;;;;;1.40;0.60;;;;;;;6.74;100.00;96900.34;5008170;28;24997;-73
2023/01/03 01:33:09;;;;;;;1.60;0.52;;;;;;;6.79;100.00;96913.94;5000782;28;21119;-73
2023/01/03 01:35:35;;;;;;;0.88;0.50;;;;;;;6.78;100.00;96924.28;5000332;28;24811;-72
2023/01/03 01:38:02;;;;;;;0.70;0.52;;;;;;;6.75;100.00;96927.81;5004424;28;24451;-72
2023/01/03 01:40:30;;;;;;;0.95;0.50;;;;;;;6.78;100.00;96929.44;5005989;28;20782;-73
2023/01/03 01:45:46;;;;;;;0.35;0.30;;;;;;;6.78;100.00;96921.72;5001673;28;20961;-73
2023/01/03 01:48:15;;;;;;;1.65;0.50;;;;;;;6.75;100.00;96914.94;5007183;28;20770;-73
2023/01/03 01:50:44;;;;;;;0.43;0.40;;;;;;;6.72;100.00;96914.19;5003924;28;20811;-73
2023/01/03 01:53:14;;;;;;;0.80;0.32;;;;;;;6.74;100.00;96907.25;4999837;28;21108;-73
2023/01/03 01:55:43;;;;;;;1.30;0.50;;;;;;;6.73;100.00;96911.56;5004608;28;20742;-73
2023/01/03 01:58:11;;;;;;;0.77;0.57;;;;;;;6.59;100.00;96912.84;5000573;28;24444;-73
2023/01/03 02:00:40;;;;;;;0.68;0.35;;;;;;;6.57;100.00;96914.63;5000966;28;20857;-73
2023/01/03 02:03:06;;;;;;;1.20;0.52;;;;;;;6.36;100.00;96913.50;5000745;28;24440;-73
2023/01/03 02:05:36;;;;;;;0.60;0.45;;;;;;;6.24;100.00;96910.38;5002754;28;20776;-73
2023/01/03 02:08:03;;;;;;;0.80;0.40;;;;;;;6.19;100.00;96916.50;5005493;28;20724;-74
2023/01/03 02:10:45;;;;;;;1.30;0.63;;;;;;;6.14;100.00;96919.22;4999734;28;24456;-73
2023/01/03 02:13:23;;;;;;;2.50;0.53;;;;;;;6.07;100.00;96917.69;4999242;28;24931;-73
2023/01/03 02:16:03;;;;;;;1.20;0.40;;;;;;;5.96;100.00;96922.28;5003807;28;20785;-73
2023/01/03 02:18:40;;;;;;;1.10;0.63;;;;;;;5.92;100.00;96913.78;4999735;28;20660;-73
2023/01/03 02:21:44;;;;;;;1.90;0.65;;;;;;;5.95;100.00;96921.44;5001792;28;20733;-73
2023/01/03 02:24:44;;;;;;;2.20;0.68;;;;;;;6.00;100.00;96921.31;4993339;28;20818;-73
2023/01/03 02:27:31;;;;;;;2.08;0.63;;;;;;;6.10;100.00;96907.31;4998802;28;20690;-72
2023/01/03 02:30:27;;;;;;;1.80;0.60;;;;;;;6.23;100.00;96918.13;4997608;28;20728;-73
2023/01/03 02:33:06;;;;;;;1.35;0.40;;;;;;;6.20;100.00;96915.66;5007390;28;20769;-73
2023/01/03 02:35:38;;;;;;;0.50;0.47;;;;;;;6.18;100.00;96914.84;5000059;28;21103;-73
2023/01/03 02:38:16;;;;;;;1.02;0.60;;;;;;;6.03;100.00;96909.22;5008743;28;20740;-73
2023/01/03 02:40:45;;;;;;;1.20;0.40;;;;;;;6.00;100.00;96901.56;5002338;28;20777;-73
2023/01/03 02:43:18;;;;;;;2.55;0.55;;;;;;;6.03;100.00;96911.78;4999017;28;20784;-73
2023/01/03 02:46:01;;;;;;;1.07;0.60;;;;;;;5.99;100.00;96919.63;5002220;28;20779;-73
2023/01/03 02:48:37;;;;;;;1.17;0.67;;;;;;;5.95;100.00;96920.59;5007441;28;20657;-72
2023/01/03 02:51:08;;;;;;;0.73;0.57;;;;;;;6.00;100.00;96929.88;5007023;28;24448;-73
2023/01/03 02:53:38;;;;;;;1.00;0.57;;;;;;;6.02;100.00;96925.53;4999176;28;20688;-73
2023/01/03 02:56:11;;;;;;;1.80;0.60;;;;;;;6.01;100.00;96938.44;5001106;28;21353;-73
2023/01/03 02:58:40;;;;;;;0.80;0.60;;;;;;;5.97;100.00;96935.09;5006486;28;20756;-72
2023/01/03 03:01:10;;;;;;;0.50;0.43;;;;;;;5.99;100.00;96941.03;4994916;28;24439;-73
2023/01/03 03:03:39;;;;;;;1.52;0.50;;;;;;;5.96;100.00;96925.69;4999214;28;20779;-73
2023/01/03 03:06:12;;;;;;;1.10;0.80;;;;;;;5.99;100.00;96924.78;5001785;28;24448;-72
2023/01/03 03:08:39;;;;;;;0.80;0.55;;;;;;;6.00;100.00;96924.72;5005866;28;20801;-73
2023/01/03 03:13:55;;;;;;;0.80;0.70;;;;;;;6.02;100.00;96914.41;4999139;28;25179;-73
2023/01/03 03:24:48;;;;;;;0.93;0.60;;;;;;;5.92;100.00;96923.22;5005163;28;20821;-72
2023/01/03 03:24:52;;;;;;;0.60;0.43;;;;;;;5.93;100.00;96928.38;4996877;28;24928;-73
2023/01/03 03:30:11;;;;;;;1.00;0.50;;;;;;;5.85;100.00;96913.97;4999295;28;24467;-73
2023/01/03 03:32:41;;;;;;;2.53;0.50;;;;;;;5.78;100.00;96924.44;5001238;28;24456;-73
2023/01/03 03:35:12;;;;;;;1.30;0.40;;;;;;;5.74;100.00;96927.09;4997771;28;24447;-73
2023/01/03 03:37:40;;;;;;;0.95;0.40;;;;;;;5.59;100.00;96921.44;5003648;28;24640;-73
2023/01/03 03:45:46;;;;;;;1.67;0.70;;;;;;;5.54;100.00;96943.84;5001687;28;24918;-73
2023/01/03 03:48:18;;;;;;;0.60;0.33;;;;;;;5.61;100.00;96941.16;5002037;28;24448;-73
2023/01/03 03:50:48;;;;;;;0.50;0.43;;;;;;;5.63;100.00;96941.94;5001449;28;24439;-73
2023/01/03 03:53:17;;;;;;;1.27;0.60;;;;;;;5.65;100.00;96941.03;4996474;28;24444;-73
2023/01/03 03:55:51;;;;;;;2.40;0.80;;;;;;;5.64;100.00;96936.78;4996370;28;20860;-73
2023/01/03 03:58:21;;;;;;;1.67;0.90;;;;;;;5.47;100.00;96939.75;4998740;28;24436;-73
2023/01/03 04:00:51;;;;;;;1.43;0.67;;;;;;;5.54;100.00;96927.59;5001198;28;20817;-73
2023/01/03 04:03:21;;;;;;;2.55;0.85;;;;;;;5.59;100.00;96928.31;4995265;28;20780;-73
2023/01/03 04:05:53;;;;;;;1.65;0.60;;;;;;;5.65;100.00;96929.91;5002465;28;24811;-73
2023/01/03 04:08:19;;;;;;;1.30;0.50;;;;;;;5.47;100.00;96932.03;4997447;28;24444;-73
2023/01/03 04:10:46;;;;;;;1.20;0.73;;;;;;;5.43;100.00;96927.00;5000638;28;25117;-73
2023/01/03 04:13:12;;;;;;;0.50;0.30;;;;;;;5.36;100.00;96934.00;4993695;28;24444;-73
2023/01/03 04:15:39;;;;;;;1.35;0.40;;;;;;;5.27;100.00;96939.38;5003991;28;24435;-73
2023/01/03 04:18:05;;;;;;;0.60;0.43;;;;;;;5.21;100.00;96945.47;4998490;28;24440;-73
2023/01/03 04:20:33;;;;;;;2.20;0.40;;;;;;;5.20;100.00;96951.50;5002457;28;24475;-73
2023/01/03 04:23:00;;;;;;;0.47;0.40;;;;;;;5.19;100.00;96946.38;5002066;28;24631;-73
2023/01/03 04:25:26;;;;;;;0.47;0.30;;;;;;;5.20;100.00;96942.97;5004602;28;24749;-73
2023/01/03 04:27:53;;;;;;;2.30;0.70;;;;;;;5.27;100.00;96942.78;5001342;28;24439;-73
2023/01/03 04:30:19;;;;;;;0.60;0.40;;;;;;;5.29;100.00;96940.16;5004500;28;24433;-73
2023/01/03 04:32:46;;;;;;;0.55;0.47;;;;;;;5.34;100.00;96946.91;5011573;28;24528;-73
2023/01/03 04:35:12;;;;;;;0.73;0.60;;;;;;;5.38;100.00;96951.94;5008758;28;24437;-73
2023/01/03 04:37:40;;;;;;;1.20;0.60;;;;;;;5.31;100.00;96946.13;5005805;28;24437;-73
2023/01/03 04:40:07;;;;;;;3.20;0.65;;;;;;;5.34;100.00;96941.75;5003638;28;24444;-73
2023/01/03 04:45:15;;;;;;;1.67;0.63;;;;;;;5.42;100.00;96946.72;4971556;28;24842;-73
2023/01/03 04:47:42;;;;;;;1.75;0.40;;;;;;;5.35;100.00;96945.19;5001428;28;24530;-73
2023/01/03 04:50:09;;;;;;;1.90;0.80;;;;;;;5.22;100.00;96946.31;5003605;28;24448;-73
2023/01/03 04:52:35;;;;;;;3.15;0.70;;;;;;;5.27;100.00;96941.94;5004724;28;24506;-73
2023/01/03 04:55:04;;;;;;;2.13;0.50;;;;;;;5.24;100.00;96942.00;5001139;28;25014;-73
2023/01/03 04:57:30;;;;;;;2.60;0.80;;;;;;;5.10;100.00;96948.28;5003856;28;24444;-73
2023/01/03 04:59:57;;;;;;;1.02;0.40;;;;;;;5.08;100.00;96952.63;5005821;28;24798;-73
2023/01/03 05:02:23;;;;;;;1.27;0.63;;;;;;;5.08;100.00;96954.38;5007593;28;24445;-73
2023/01/03 05:04:49;;;;;;;3.60;0.90;;;;;;;5.30;100.00;96950.44;5000853;28;24443;-73
2023/01/03 05:07:16;;;;;;;1.13;0.70;;;;;;;5.15;100.00;96949.91;5000459;28;24436;-73
2023/01/03 05:09:43;;;;;;;1.65;1.05;;;;;;;5.26;100.00;96951.34;5001505;28;24443;-73
2023/01/03 05:12:11;;;;;;;2.00;0.90;;;;;;;5.27;100.00;96952.22;5004135;28;24463;-73
2023/01/03 05:14:40;;;;;;;3.22;1.60;;;;;;;5.01;100.00;96957.94;4998839;28;24436;-73
2023/01/03 05:17:06;;;;;;;2.33;1.30;;;;;;;4.87;100.00;96950.53;5000325;28;24968;-73
2023/01/03 05:19:33;;;;;;;6.75;1.38;;;;;;;4.87;100.00;96953.09;5010160;28;24440;-72
2023/01/03 05:27:29;;;;;;;2.75;1.35;;;;;;;4.80;100.00;96954.94;5005834;28;24524;-73
2023/01/03 05:29:56;;;;;;;1.80;1.20;;;;;;;4.63;100.00;96953.59;5008546;28;24994;-73
2023/01/03 05:32:23;;;;;;;1.85;1.20;;;;;;;4.45;100.00;96957.38;4999919;28;24461;-73
2023/01/03 05:34:50;;;;;;;2.25;1.35;;;;;;;4.32;100.00;96952.47;5002082;28;24447;-73
2023/01/03 05:37:16;;;;;;;2.38;1.20;;;;;;;4.19;100.00;96965.56;5006837;28;24443;-73
2023/01/03 05:39:43;;;;;;;1.77;1.20;;;;;;;4.08;100.00;96965.78;5006926;28;25001;-73
2023/01/03 05:42:09;;;;;;;2.38;1.15;;;;;;;4.08;100.00;96964.06;4999965;28;25016;-74
2023/01/03 05:44:37;;;;;;;3.60;1.13;;;;;;;3.99;100.00;96968.50;5000593;28;25033;-73
2023/01/03 05:47:05;;;;;;;2.83;1.30;;;;;;;4.08;100.00;96965.78;5005037;28;24432;-73
2023/01/03 05:49:33;;;;;;;2.50;1.23;;;;;;;4.21;100.00;96964.66;5009263;28;24499;-73
2023/01/03 05:51:59;;;;;;;2.20;1.02;;;;;;;4.33;100.00;96958.44;5001496;28;24460;-73
2023/01/03 05:54:26;;;;;;;1.40;0.77;;;;;;;4.44;100.00;96971.06;5000179;28;24440;-74
2023/01/03 05:56:52;;;;;;;1.13;0.75;;;;;;;4.51;100.00;96973.50;5005665;28;24443;-73
2023/01/03 05:59:19;;;;;;;1.75;1.02;;;;;;;4.52;100.00;96969.19;5000128;28;24436;-73
2023/01/03 06:01:47;;;;;;;6.72;3.22;;;;;;;4.57;100.00;96973.38;5002191;28;24439;-73
2023/01/03 06:04:14;;;;;;;2.42;1.00;;;;;;;4.46;100.00;96974.47;4999746;28;24459;-73
2023/01/03 06:06:40;;;;;;;1.48;0.80;;;;;;;4.48;100.00;96972.69;5009884;28;25000;-73
2023/01/03 06:09:07;;;;;;;1.58;0.82;;;;;;;4.40;100.00;96980.53;5002279;28;24827;-74
2023/01/03 06:11:33;;;;;;;1.60;0.73;;;;;;;4.31;100.00;96975.59;5003226;28;24490;-74
2023/01/03 06:14:00;;;;;;;1.27;0.75;;;;;;;4.18;100.00;96984.38;5006854;28;24440;-73
2023/01/03 06:19:12;;;;;;;0.93;0.60;;;;;;;4.31;100.00;96991.84;5007712;28;25050;-72
2023/01/03 06:21:40;;;;;;;1.20;0.70;;;;;;;4.29;100.00;96987.59;5004260;28;24443;-73
2023/01/03 06:24:07;;;;;;;1.10;0.60;;;;;;;4.15;100.00;96987.84;5009016;28;24536;-73
2023/01/03 06:26:34;;;;;;;1.55;0.60;;;;;;;4.06;100.00;96991.44;5009441;28;24447;-73
2023/01/03 06:29:01;;;;;;;1.35;0.80;;;;;;;4.02;100.00;96994.06;5006700;28;24436;-73
2023/01/03 06:31:27;;;;;;;1.40;0.57;;;;;;;4.00;100.00;96991.53;5000690;28;24444;-69
2023/01/03 06:33:54;;;;;;;1.17;0.60;;;;;;;3.98;100.00;96992.44;5005207;28;24460;-73
2023/01/03 06:36:24;;;;;;;1.70;0.70;;;;;;;4.09;100.00;97000.78;5003728;28;24436;-73
2023/01/03 06:38:51;;;;;;;3.40;1.90;;;;;;;4.20;100.00;97009.13;5007162;28;24522;-73
2023/01/03 06:41:18;;;;;;;4.35;1.90;;;;;;;4.31;100.00;97004.66;4999411;28;24436;-73
2023/01/03 06:43:44;;;;;;;3.60;1.98;;;;;;;4.25;100.00;97001.34;5000013;28;25001;-74
2023/01/03 06:54:28;;;;;;;6.85;3.35;;;;;;;4.25;100.00;97003.91;5002931;28;24505;-74
2023/01/03 06:56:55;;;;;;;3.20;1.92;;;;;;;4.24;100.00;97010.78;5001081;28;24966;-73
2023/01/03 06:59:23;;;;;;;3.03;1.63;;;;;;;4.24;100.00;97012.50;4996712;28;24435;-73
2023/01/03 07:01:50;;;;;;;6.03;1.75;;;;;;;4.28;100.00;97004.72;4997783;28;24993;-74
2023/01/03 07:04:18;;;;;;;3.17;1.52;;;;;;;4.23;100.00;97011.66;4998550;28;24990;-73
2023/01/03 07:06:46;;;;;;;2.47;1.00;;;;;;;4.27;100.00;97013.28;4999973;28;24435;-74
2023/01/03 07:09:13;;;;;;;2.07;0.83;;;;;;;4.17;100.00;97013.47;4998576;28;25042;-73
2023/01/03 07:11:40;;;;;;;1.67;1.00;;;;;;;4.04;100.00;97021.38;4998535;28;24435;-75
2023/01/03 07:14:08;;;;;;;1.73;0.93;;;;;;;3.98;100.00;97026.59;4998968;28;25002;-72
2023/01/03 07:16:36;;;;;;;1.45;0.93;;;;;;;3.83;100.00;97019.19;4998536;28;24435;-74
2023/01/03 07:19:04;;;;;;;1.57;1.00;;;;;;;3.80;100.00;97016.66;4998980;28;24447;-74
2023/01/03 07:21:32;;;;;;;2.80;1.40;;;;;;;3.75;100.00;97031.28;4994611;28;24803;-74
2023/01/03 07:24:02;;;;;;;5.18;2.15;;;;;;;3.75;100.00;97027.00;5006341;28;24439;-74
2023/01/03 07:26:30;;;;;;;2.38;1.83;;;;;;;3.74;100.00;97034.69;4998242;28;24430;-74
2023/01/03 07:28:57;;;;;;;3.08;2.20;;;;;;;3.78;100.00;97046.56;5000706;28;24870;-75
2023/01/03 07:31:24;;;;;;;5.97;2.10;;;;;;;3.74;100.00;97039.81;4997474;28;24440;-76
2023/01/03 07:33:51;;;;;;;5.72;1.83;;;;;;;3.76;100.00;97045.75;4993656;28;24457;-74
2023/01/03 07:36:19;;;;;;;3.87;1.90;;;;;;;3.73;100.00;97046.66;5007012;28;24827;-75
2023/01/03 07:38:46;;;;;;;3.90;2.00;;;;;;;3.62;100.00;97051.94;4993886;28;24436;-75
2023/01/03 07:41:15;;;;;;;5.30;1.90;;;;;;;3.51;100.00;97051.25;5001054;28;24451;-74
2023/01/03 07:43:44;;;;;;;2.58;1.90;;;;;;;3.45;100.00;97048.78;5001751;28;24479;-74
2023/01/03 07:46:13;;;;;;;2.95;1.90;;;;;;;3.58;100.00;97047.72;4995545;28;24747;-74
2023/01/03 07:48:41;;;;;;;3.40;1.92;;;;;;;3.73;100.00;97048.38;4994223;28;24440;-74
2023/01/03 07:51:09;;;;;;;3.03;1.67;;;;;;;3.80;100.00;97045.69;5006664;28;24444;-74
2023/01/03 07:53:36;;;;;;;2.47;1.48;;;;;;;3.90;100.00;97046.41;4995686;28;24455;-74
2023/01/03 07:56:05;;;;;;;2.85;1.75;;;;;;;3.98;100.00;97043.72;5006362;28;24440;-74
2023/01/03 07:58:33;;;;;;;2.70;1.90;;;;;;;4.02;100.00;97048.75;5009944;28;24437;-73
2023/01/03 08:01:05;;;;;;;4.75;2.05;;;;;;;4.02;100.00;97059.00;5001125;28;24437;-73
2023/01/03 08:03:31;;;;;;;3.47;2.00;;;;;;;4.06;100.00;97063.22;5009972;28;24443;-73
2023/01/03 08:06:03;;;;;;;4.13;2.20;;;;;;;4.14;100.00;97070.78;5009318;28;25013;-73
2023/01/03 08:08:29;;;;;;;1.65;1.50;;;;;;;4.13;100.00;97058.84;5001957;28;25004;-74
2023/01/03 08:13:41;;;;;;;3.03;1.88;;;;;;;4.22;100.00;97065.50;5010469;28;25132;-74
2023/01/03 08:16:10;;;;;;;4.35;1.95;;;;;;;4.25;100.00;97065.47;5003012;28;24436;-76
2023/01/03 08:18:38;;;;;;;2.92;2.08;;;;;;;4.27;100.00;97068.88;5007810;28;24469;-74
2023/01/03 08:21:05;;;;;;;5.45;1.83;;;;;;;4.36;100.00;97058.44;5002925;28;24989;-75
2023/01/03 08:23:32;;;;;;;2.15;1.33;;;;;;;4.36;100.00;97073.81;5004436;28;24477;-74
2023/01/03 08:26:00;;;;;;;2.50;1.40;;;;;;;4.34;100.00;97067.88;5005652;28;24429;-74
2023/01/03 08:28:27;;;;;;;2.17;1.10;;;;;;;4.12;100.00;97065.69;5004026;28;24495;-74
2023/01/03 08:30:55;;;;;;;2.70;1.42;;;;;;;4.03;100.00;97077.78;5004647;28;24804;-74
2023/01/03 08:33:22;;;;;;;1.77;1.30;;;;;;;4.06;100.00;97073.47;5004728;28;24464;-74
2023/01/03 08:35:51;;;;;;;3.85;1.40;;;;;;;4.14;100.00;97078.47;5000303;28;24440;-74
2023/01/03 08:38:20;;;;;;;1.70;1.20;;;;;;;4.19;100.00;97089.50;5005053;28;24444;-74
2023/01/03 08:40:47;;;;;;;2.40;1.58;;;;;;;4.15;100.00;97087.00;5004622;28;24429;-75
2023/01/03 08:43:15;;;;;;;4.47;2.08;;;;;;;4.18;100.00;97081.81;5005754;28;24444;-75
2023/01/03 08:45:42;;;;;;;4.45;2.25;;;;;;;4.28;100.00;97089.34;5003798;28;24512;-73
2023/01/03 08:48:10;;;;;;;5.13;3.10;;;;;;;4.23;100.00;97093.72;5006883;28;24518;-75
2023/01/03 08:50:37;;;;;;;7.70;3.55;;;;;;;4.18;100.00;97094.66;5006572;28;24508;-74
2023/01/03 08:53:04;;;;;;;8.60;2.85;;;;;;;4.21;100.00;97089.47;5007992;28;24463;-75
2023/01/03 08:55:31;;;;;;;5.47;3.05;;;;;;;4.27;100.00;97095.34;5005405;28;24450;-75
2023/01/03 08:57:58;;;;;;;5.88;2.70;;;;;;;4.32;100.00;97095.28;5009464;28;24439;-75
2023/01/03 09:00:25;;;;;;;5.72;2.80;;;;;;;4.34;100.00;97091.81;5007792;28;24474;-74
2023/01/03 09:02:51;;;;;;;4.10;2.60;;;;;;;4.36;100.00;97100.31;5006343;28;24443;-75
2023/01/03 09:05:19;;;;;;;6.18;2.50;;;;;;;4.42;100.00;97101.94;5013460;28;24431;-74
2023/01/03 09:07:46;;;;;;;4.00;2.30;;;;;;;4.48;100.00;97098.41;5003369;28;24436;-74
2023/01/03 09:10:12;;;;;;;3.25;2.40;;;;;;;4.52;100.00;97100.88;5006845;28;24439;-74
2023/01/03 09:12:39;;;;;;;3.47;2.25;;;;;;;4.59;100.00;97091.38;4999790;28;24464;-74
2023/01/03 09:15:06;;;;;;;6.90;4.80;;;;;;;4.43;100.00;97103.63;5003932;28;24440;-74
2023/01/03 09:17:33;;;;;;;19.07;9.80;;;;;;;4.37;100.00;97106.28;5005870;28;24443;-74
2023/01/03 09:19:59;;;;;;;4.95;3.58;;;;;;;4.37;100.00;97116.53;5001507;28;24436;-74
2023/01/03 09:22:28;;;;;;;5.82;2.60;;;;;;;4.33;100.00;97113.19;5000150;28;25213;-74
2023/01/03 09:24:55;;;;;;;4.43;2.60;;;;;;;4.22;100.00;97115.06;4998269;28;24803;-75
2023/01/03 09:27:21;;;;;;;5.20;2.78;;;;;;;4.19;100.00;97112.59;5002393;28;24487;-75
2023/01/03 09:29:48;;;;;;;4.00;3.03;;;;;;;4.19;100.00;97120.28;5001686;28;24429;-75
2023/01/03 09:32:14;;;;;;;4.72;3.17;;;;;;;4.32;100.00;97124.31;5007246;28;25020;-74
2023/01/03 09:34:41;;;;;;;3.85;2.70;;;;;;;4.43;100.00;97113.88;5010031;28;24463;-74
2023/01/03 09:37:07;;;;;;;4.82;2.40;;;;;;;4.60;100.00;97126.44;5002263;28;24429;-75
2023/01/03 09:39:35;;;;;;;5.75;3.00;;;;;;;4.71;100.00;97131.34;4998848;28;24428;-74
2023/01/03 09:45:03;;;;;;;2.92;1.90;;;;;;;4.83;100.00;97128.59;4930703;29;25072;-73
2023/01/03 09:47:35;;;;;;;4.00;1.90;;;;;;;4.79;100.00;97132.94;4932456;29;24472;-73
2023/01/03 09:50:02;;;;;;;2.40;1.67;;;;;;;4.79;100.00;97126.94;4967656;28;24436;-73
2023/01/03 10:04:10;;;;;;;1.55;1.30;;;;;;;4.69;100.00;97128.81;5005492;28;24782;-72
2023/01/03 10:06:49;;;;;;;1.55;1.30;;;;;;;4.69;100.00;97138.25;4999075;28;24443;-72
2023/01/03 10:09:28;;;;;;;3.53;2.00;;;;;;;4.66;100.00;97135.72;4999848;28;25112;-72
2023/01/03 10:12:08;;;;;;;2.47;1.67;;;;;;;4.70;100.00;97127.94;5002347;28;24998;-71
2023/01/03 10:14:49;;;;;;;3.10;1.90;;;;;;;4.80;100.00;97128.63;5003790;28;24452;-71
2023/01/03 10:17:25;;;;;;;4.22;1.98;;;;;;;4.96;100.00;97130.03;4999662;28;25017;-72
2023/01/03 10:20:18;;;;;;;5.85;2.28;;;;;;;4.95;100.00;97125.78;5006117;28;24443;-74
2023/01/03 10:22:47;;;;;;;4.20;2.10;;;;;;;5.10;100.00;97128.06;4982092;28;24441;-73
2023/01/03 10:25:15;;;;;;;5.10;2.78;;;;;;;5.16;100.00;97123.69;4981258;28;24432;-72
2023/01/03 10:27:46;;;;;;;4.75;2.90;;;;;;;5.41;100.00;97126.59;4980267;28;24528;-72
2023/01/03 10:30:17;;;;;;;6.40;4.18;;;;;;;5.45;100.00;97126.50;4980882;28;24437;-72
2023/01/03 10:33:08;;;;;;;4.30;3.50;;;;;;;5.79;100.00;97125.78;4980037;28;24434;-74
2023/01/03 10:35:36;;;;;;;5.53;3.65;;;;;;;5.80;100.00;97122.31;4985937;28;24835;-75
2023/01/03 10:38:03;;;;;;;5.40;3.05;;;;;;;5.93;100.00;97122.91;4980632;28;24425;-75
2023/01/03 10:40:39;;;;;;;8.63;3.80;;;;;;;6.07;100.00;97116.56;4978787;28;24432;-75
2023/01/03 10:43:16;;;;;;;6.13;3.58;;;;;;;6.24;100.00;97115.34;4981155;28;24432;-75
2023/01/03 10:45:55;;;;;;;4.18;3.03;;;;;;;6.36;100.00;97114.19;4979692;28;24440;-75
2023/01/03 10:48:22;;;;;;;4.15;2.60;;;;;;;6.33;100.00;97099.66;4979557;28;24436;-75
2023/01/03 10:50:50;;;;;;;3.63;2.38;;;;;;;6.36;100.00;97104.75;4980106;28;24453;-75
2023/01/03 10:53:21;;;;;;;4.18;2.28;;;;;;;6.46;100.00;97098.50;4986744;28;24523;-75
2023/01/03 10:55:51;;;;;;;4.50;2.83;;;;;;;6.46;100.00;97095.91;4984597;28;20799;-75
2023/01/03 10:58:23;;;;;;;2.30;1.90;;;;;;;6.89;100.00;97097.34;4984448;28;24444;-75
2023/01/03 11:00:51;;;;;;;3.22;1.95;;;;;;;7.28;100.00;97092.84;4983071;28;21287;-75
2023/01/03 11:03:19;;;;;;;3.97;2.35;;;;;;;7.17;100.00;97084.56;4987494;28;24455;-75
2023/01/03 11:05:48;;;;;;;3.17;2.13;;;;;;;7.51;100.00;97083.59;4979030;28;24934;-75
2023/01/03 11:08:18;;;;;;;4.63;2.00;;;;;;;7.57;100.00;97080.00;4979439;28;20817;-75
2023/01/03 11:10:56;;;;;;;5.53;1.88;;;;;;;7.48;100.00;97081.94;4987628;28;21314;-75
2023/01/03 11:13:29;;;;;;;2.90;1.50;;;;;;;7.57;100.00;97080.84;4984297;28;20830;-75
2023/01/03 11:15:57;;;;;;;2.20;1.58;;;;;;;7.43;100.00;97082.97;4979457;28;20728;-75
2023/01/03 11:18:26;;;;;;;2.25;1.65;;;;;;;7.38;100.00;97080.53;4988701;28;21398;-75
2023/01/03 11:21:05;;;;;;;1.83;1.30;;;;;;;7.28;100.00;97082.53;4987044;28;20776;-75
2023/01/03 11:23:53;;;;;;;2.85;1.40;;;;;;;7.57;100.00;97080.00;5003328;28;20661;-75
2023/01/03 11:26:37;;;;;;;2.63;1.10;;;;;;;7.59;100.00;97078.19;4996767;28;20714;-75
2023/01/03 11:29:21;;;;;;;2.63;1.30;;;;;;;7.37;100.00;97083.97;5005400;28;20705;-75
2023/01/03 11:31:54;;;;;;;2.72;1.40;;;;;;;7.27;100.00;97077.44;5000360;28;21119;-75
2023/01/03 11:34:41;;;;;;;4.97;1.10;;;;;;;7.30;100.00;97079.91;4994537;28;20767;-75
2023/01/03 11:37:17;;;;;;;1.25;0.80;;;;;;;7.27;100.00;97074.84;5002943;28;20720;-75
2023/01/03 11:40:01;;;;;;;1.60;1.00;;;;;;;7.39;100.00;97079.66;5006517;28;20689;-75
2023/01/03 11:42:37;;;;;;;1.60;0.90;;;;;;;7.64;100.00;97076.31;5001524;28;20738;-75
2023/01/03 11:45:34;;;;;;;2.40;0.60;;;;;;;7.67;100.00;97076.22;5000954;28;24440;-75
2023/01/03 11:48:16;;;;;;;2.58;0.57;;;;;;;7.81;100.00;97065.50;5004498;28;24436;-73
2023/01/03 11:50:52;;;;;;;1.85;0.60;;;;;;;8.02;100.00;97058.84;5004708;28;20662;-72
2023/01/03 11:53:35;;;;;;;2.92;0.80;;;;;;;8.04;100.00;97057.88;4997846;28;20777;-72
2023/01/03 11:56:20;;;;;;;4.63;0.63;;;;;;;7.89;100.00;97060.94;4998968;28;20742;-72
2023/01/03 11:59:03;;;;;;;2.92;0.98;;;;;;;8.22;100.00;97056.44;5002797;28;20678;-72
2023/01/03 12:01:50;;;;;;;2.20;0.60;;;;;;;8.07;100.00;97050.03;4997565;28;20679;-72
2023/01/03 12:04:26;;;;;;;1.70;0.60;;;;;;;8.04;100.00;97039.81;4998557;28;20728;-72
2023/01/03 12:07:14;;;;;;;1.70;0.60;;;;;;;8.07;100.00;97047.44;5001497;28;20687;-72
2023/01/03 12:09:49;;;;;;;0.97;0.60;;;;;;;8.09;100.00;97052.59;5004046;28;20729;-72
2023/01/03 12:12:36;;;;;;;1.60;0.57;;;;;;;7.99;100.00;97050.28;4997664;28;20736;-72
2023/01/03 12:15:12;;;;;;;0.85;0.40;;;;;;;8.05;100.00;97051.00;5007544;28;20795;-71
2023/01/03 12:17:46;;;;;;;2.35;0.57;;;;;;;8.16;100.00;97054.06;5002099;28;20661;-70
2023/01/03 12:20:20;;;;;;;1.83;0.50;;;;;;;8.05;100.00;97049.25;5003567;28;24449;-72
2023/01/03 12:22:53;;;;;;;1.70;1.08;;;;;;;8.30;100.00;97038.09;5001453;28;24445;-72
2023/01/03 12:25:28;;;;;;;1.48;0.82;;;;;;;8.44;100.00;97046.28;4993829;28;24990;-72
2023/01/03 12:28:01;;;;;;;3.03;2.00;;;;;;;8.46;100.00;97041.91;4998883;28;21172;-72
2023/01/03 12:30:37;;;;;;;1.73;0.50;;;;;;;8.59;100.00;97040.56;4998029;28;21207;-72
2023/01/03 12:33:20;;;;;;;2.83;0.75;;;;;;;8.39;100.00;97038.69;5000339;28;20994;-72
2023/01/03 12:35:50;;;;;;;2.08;0.70;;;;;;;8.30;100.00;97038.09;4997904;28;20784;-72
2023/01/03 12:38:25;;;;;;;0.90;0.50;;;;;;;8.29;100.00;97039.00;5005644;28;25057;-72
2023/01/03 12:40:55;;;;;;;1.00;0.57;;;;;;;8.22;100.00;97034.03;4998457;28;24444;-72
2023/01/03 12:43:31;;;;;;;1.10;0.50;;;;;;;8.16;100.00;97034.25;5003125;28;20818;-72
2023/01/03 12:46:04;;;;;;;1.45;0.60;;;;;;;8.22;100.00;97035.78;4999981;28;24436;-72
2023/01/03 12:48:47;;;;;;;1.33;0.70;;;;;;;8.11;100.00;97025.81;5002251;28;20772;-72